createdAt,value
2022-09-20T00:00:24.967Z,0.00
2022-09-20T00:01:25.639Z,0.00
2022-09-20T00:02:26.262Z,0.00
2022-09-20T00:03:26.847Z,0.00
2022-09-20T00:04:27.408Z,0.00
2022-09-20T00:05:28.012Z,0.00
2022-09-20T00:06:28.602Z,0.00
2022-09-20T00:07:29.164Z,0.00
2022-09-20T00:08:29.913Z,0.00
2022-09-20T00:09:30.473Z,0.00
2022-09-20T00:10:31.059Z,0.00
2022-09-20T00:11:31.615Z,0.00
2022-09-20T00:12:32.181Z,0.00
2022-09-20T00:13:32.776Z,0.00
2022-09-20T00:14:33.335Z,0.00
2022-09-20T00:15:33.898Z,0.00
2022-09-20T00:16:34.543Z,0.00
2022-09-20T00:17:35.144Z,0.00
2022-09-20T00:18:35.928Z,0.00
2022-09-20T00:19:36.483Z,0.00
2022-09-20T00:20:37.041Z,0.00
2022-09-20T00:21:37.606Z,0.00
2022-09-20T00:22:38.168Z,0.00
2022-09-20T00:23:38.766Z,0.00
2022-09-20T00:24:39.322Z,0.00
2022-09-20T00:25:39.906Z,0.00
2022-09-20T00:26:40.463Z,0.00
2022-09-20T00:27:41.043Z,0.00
2022-09-20T00:28:41.673Z,0.00
2022-09-20T00:29:42.376Z,0.00
2022-09-20T00:30:42.943Z,0.00
2022-09-20T00:31:43.550Z,0.00
2022-09-20T00:32:44.152Z,0.00
2022-09-20T00:33:44.742Z,0.00
2022-09-20T00:34:45.301Z,0.00
2022-09-20T00:35:45.857Z,0.00
2022-09-20T00:36:46.419Z,0.00
2022-09-20T00:37:46.978Z,0.00
2022-09-20T00:38:47.577Z,0.00
2022-09-20T00:39:48.136Z,0.00
2022-09-20T00:40:48.721Z,0.00
2022-09-20T00:41:49.289Z,0.00
2022-09-20T00:42:49.854Z,0.00
2022-09-20T00:43:50.453Z,0.00
2022-09-20T00:44:51.017Z,0.00
2022-09-20T00:45:51.659Z,0.00
2022-09-20T00:46:52.265Z,0.00
2022-09-20T00:47:52.827Z,0.00
2022-09-20T00:48:53.619Z,0.00
2022-09-20T00:49:54.187Z,0.00
2022-09-20T00:50:54.759Z,0.00
2022-09-20T00:51:55.321Z,0.00
2022-09-20T00:52:55.891Z,0.00
2022-09-20T00:53:56.587Z,0.00
2022-09-20T00:54:57.152Z,0.00
2022-09-20T00:55:57.741Z,0.00
2022-09-20T00:56:58.297Z,0.00
2022-09-20T00:57:58.860Z,0.00
2022-09-20T00:58:59.459Z,0.00
2022-09-20T01:00:00.017Z,0.00
2022-09-20T01:01:00.652Z,0.00
2022-09-20T01:02:01.277Z,0.00
2022-09-20T01:03:01.865Z,0.00
2022-09-20T01:04:02.461Z,0.00
2022-09-20T01:05:03.031Z,0.00
2022-09-20T01:06:03.592Z,0.00
2022-09-20T01:07:04.151Z,0.00
2022-09-20T01:08:04.719Z,0.00
2022-09-20T01:09:05.368Z,0.00
2022-09-20T01:10:05.928Z,0.00
2022-09-20T01:11:06.521Z,0.00
2022-09-20T01:12:07.088Z,0.00
2022-09-20T01:13:07.652Z,0.00
2022-09-20T01:14:08.252Z,0.00
2022-09-20T01:15:08.821Z,0.00
2022-09-20T01:16:09.441Z,0.00
2022-09-20T01:17:10.082Z,0.00
2022-09-20T01:18:10.650Z,0.00
2022-09-20T01:19:11.371Z,0.00
2022-09-20T01:20:11.924Z,0.00
2022-09-20T01:21:12.486Z,0.00
2022-09-20T01:22:13.040Z,0.00
2022-09-20T01:23:13.603Z,0.00
2022-09-20T01:24:14.234Z,0.00
2022-09-20T01:25:14.791Z,0.00
2022-09-20T01:26:15.375Z,0.00
2022-09-20T01:27:15.927Z,0.00
2022-09-20T01:28:16.495Z,0.00
2022-09-20T01:29:17.195Z,0.00
2022-09-20T01:30:17.781Z,0.00
2022-09-20T01:31:18.456Z,0.00
2022-09-20T01:32:19.086Z,0.00
2022-09-20T01:33:19.640Z,0.00
2022-09-20T01:34:20.240Z,0.00
2022-09-20T01:35:20.817Z,0.00
2022-09-20T01:36:21.384Z,0.00
2022-09-20T01:37:21.949Z,0.00
2022-09-20T01:38:22.510Z,0.00
2022-09-20T01:39:23.103Z,0.00
2022-09-20T01:40:23.782Z,0.00
2022-09-20T01:41:24.407Z,0.00
2022-09-20T01:42:24.977Z,0.00
2022-09-20T01:43:25.549Z,0.00
2022-09-20T01:44:26.166Z,0.00
2022-09-20T01:45:26.788Z,0.00
2022-09-20T01:46:27.367Z,0.00
2022-09-20T01:47:27.922Z,0.00
2022-09-20T01:48:28.476Z,0.00
2022-09-20T01:49:29.136Z,0.00
2022-09-20T01:50:29.691Z,0.00
2022-09-20T01:51:30.257Z,0.00
2022-09-20T01:52:30.821Z,0.00
2022-09-20T01:53:31.381Z,0.00
2022-09-20T01:54:31.989Z,0.00
2022-09-20T01:55:32.551Z,0.00
2022-09-20T01:56:33.137Z,0.00
2022-09-20T01:57:33.722Z,0.00
2022-09-20T01:58:34.292Z,0.00
2022-09-20T01:59:35.054Z,0.00
2022-09-20T02:00:35.615Z,0.00
2022-09-20T02:01:36.321Z,0.00
2022-09-20T02:02:36.979Z,0.00
2022-09-20T02:03:37.596Z,0.00
2022-09-20T02:04:38.189Z,0.00
2022-09-20T02:05:38.743Z,0.00
2022-09-20T02:06:39.333Z,0.00
2022-09-20T02:07:39.897Z,0.00
2022-09-20T02:08:40.461Z,0.00
2022-09-20T02:09:41.103Z,0.00
2022-09-20T02:10:41.656Z,0.00
2022-09-20T02:11:42.241Z,0.00
2022-09-20T02:12:42.793Z,0.00
2022-09-20T02:13:43.355Z,0.00
2022-09-20T02:14:43.951Z,0.00
2022-09-20T02:15:44.519Z,0.00
2022-09-20T02:16:45.153Z,0.00
2022-09-20T02:17:45.772Z,0.00
2022-09-20T02:18:46.334Z,0.00
2022-09-20T02:19:47.013Z,0.00
2022-09-20T02:20:47.584Z,0.00
2022-09-20T02:21:48.142Z,0.00
2022-09-20T02:22:48.738Z,0.00
2022-09-20T02:23:49.350Z,0.00
2022-09-20T02:24:50.016Z,0.00
2022-09-20T02:25:50.582Z,0.00
2022-09-20T02:26:51.167Z,0.00
2022-09-20T02:27:51.728Z,0.00
2022-09-20T02:28:52.285Z,0.00
2022-09-20T02:29:52.911Z,0.00
2022-09-20T02:30:53.470Z,0.00
2022-09-20T02:31:54.090Z,0.00
2022-09-20T02:32:54.724Z,0.00
2022-09-20T02:33:55.287Z,0.00
2022-09-20T02:34:55.881Z,0.00
2022-09-20T02:35:56.437Z,0.00
2022-09-20T02:36:56.997Z,0.00
2022-09-20T02:37:57.566Z,0.00
2022-09-20T02:38:58.136Z,0.00
2022-09-20T02:39:58.916Z,0.00
2022-09-20T02:40:59.516Z,0.00
2022-09-20T02:42:00.101Z,0.00
2022-09-20T02:43:00.670Z,0.00
2022-09-20T02:44:01.231Z,0.00
2022-09-20T02:45:01.830Z,0.00
2022-09-20T02:46:02.481Z,0.00
2022-09-20T02:47:03.117Z,0.00
2022-09-20T02:48:03.684Z,0.00
2022-09-20T02:49:04.250Z,0.00
2022-09-20T02:50:04.869Z,0.00
2022-09-20T02:51:05.429Z,0.00
2022-09-20T02:52:05.989Z,0.00
2022-09-20T02:53:06.552Z,0.00
2022-09-20T02:54:07.115Z,0.00
2022-09-20T02:55:07.830Z,0.00
2022-09-20T02:56:08.392Z,0.00
2022-09-20T02:57:08.971Z,0.00
2022-09-20T02:58:09.539Z,0.00
2022-09-20T02:59:10.093Z,0.00
2022-09-20T03:00:10.696Z,0.00
2022-09-20T03:01:11.355Z,0.00
2022-09-20T03:02:12.068Z,0.00
2022-09-20T03:03:12.692Z,0.00
2022-09-20T03:04:13.252Z,0.00
2022-09-20T03:05:13.870Z,0.00
2022-09-20T03:06:14.437Z,0.00
2022-09-20T03:07:15.002Z,0.00
2022-09-20T03:08:15.556Z,0.00
2022-09-20T03:09:16.127Z,0.00
2022-09-20T03:10:16.774Z,0.00
2022-09-20T03:11:17.338Z,0.00
2022-09-20T03:12:17.922Z,0.00
2022-09-20T03:13:18.481Z,0.00
2022-09-20T03:14:19.044Z,0.00
2022-09-20T03:15:19.765Z,0.00
2022-09-20T03:16:20.396Z,0.00
2022-09-20T03:17:20.968Z,0.00
2022-09-20T03:18:21.527Z,0.00
2022-09-20T03:19:22.082Z,0.00
2022-09-20T03:20:44.490Z,0.00
2022-09-20T03:21:23.495Z,0.00
2022-09-20T03:22:24.057Z,0.00
2022-09-20T03:23:24.613Z,0.00
2022-09-20T03:24:25.173Z,0.00
2022-09-20T03:25:25.735Z,0.00
2022-09-20T03:26:26.399Z,0.00
2022-09-20T03:27:26.985Z,0.00
2022-09-20T03:28:27.548Z,0.00
2022-09-20T03:29:28.109Z,0.00
2022-09-20T03:30:28.670Z,0.00
2022-09-20T03:31:29.311Z,0.00
2022-09-20T03:32:29.937Z,0.00
2022-09-20T03:33:30.502Z,0.00
2022-09-20T03:34:31.068Z,0.00
2022-09-20T03:35:31.628Z,0.00
2022-09-20T03:36:32.219Z,0.00
2022-09-20T03:37:32.779Z,0.00
2022-09-20T03:38:33.353Z,0.00
2022-09-20T03:39:33.916Z,0.00
2022-09-20T03:40:34.500Z,0.00
2022-09-20T03:41:35.106Z,0.00
2022-09-20T03:42:35.696Z,0.00
2022-09-20T03:43:36.260Z,0.00
2022-09-20T03:44:36.822Z,0.00
2022-09-20T03:45:37.427Z,1.00
2022-09-20T03:46:38.054Z,0.00
2022-09-20T03:47:38.616Z,0.00
2022-09-20T03:48:39.175Z,0.00
2022-09-20T03:49:39.742Z,0.00
2022-09-20T03:50:40.305Z,0.00
2022-09-20T03:51:40.849Z,1.00
2022-09-20T03:52:41.358Z,1.00
2022-09-20T03:53:41.861Z,2.00
2022-09-20T03:54:42.367Z,2.00
2022-09-20T03:55:42.886Z,2.00
2022-09-20T03:56:43.502Z,3.00
2022-09-20T03:57:44.037Z,4.00
2022-09-20T03:58:44.545Z,4.00
2022-09-20T03:59:45.047Z,6.00
2022-09-20T04:00:45.683Z,11.00
2022-09-20T04:01:46.271Z,9.00
2022-09-20T04:02:46.832Z,13.00
2022-09-20T04:03:47.380Z,20.00
2022-09-20T04:04:47.886Z,24.00
2022-09-20T04:05:48.402Z,29.00
2022-09-20T04:06:48.940Z,37.00
2022-09-20T04:07:49.444Z,44.00
2022-09-20T04:08:49.946Z,54.00
2022-09-20T04:09:50.452Z,65.00
2022-09-20T04:10:50.968Z,75.00
2022-09-20T04:11:51.577Z,85.00
2022-09-20T04:12:52.373Z,99.00
2022-09-20T04:13:52.877Z,117.00
2022-09-20T04:14:53.389Z,127.00
2022-09-20T04:15:53.892Z,143.00
2022-09-20T04:16:54.554Z,159.00
2022-09-20T04:17:55.081Z,178.00
2022-09-20T04:18:55.579Z,194.00
2022-09-20T04:19:56.084Z,212.00
2022-09-20T04:20:56.584Z,233.00
2022-09-20T04:21:58.156Z,254.00
2022-09-20T04:22:58.188Z,269.00
2022-09-20T04:23:58.711Z,297.00
2022-09-20T04:24:59.210Z,314.00
2022-09-20T04:26:00.005Z,333.00
2022-09-20T04:27:01.518Z,354.00
2022-09-20T04:28:01.569Z,377.00
2022-09-20T04:29:02.083Z,407.00
2022-09-20T04:30:03.192Z,437.00
2022-09-20T04:31:03.601Z,450.00
2022-09-20T04:32:05.107Z,467.00
2022-09-20T04:33:07.668Z,486.00
2022-09-20T04:34:05.864Z,508.00
2022-09-20T04:35:05.745Z,533.00
2022-09-20T04:36:11.527Z,551.00
2022-09-20T04:37:07.068Z,573.00
2022-09-20T04:38:10.418Z,596.00
2022-09-20T04:39:08.910Z,617.00
2022-09-20T04:40:14.453Z,636.00
2022-09-20T04:41:10.659Z,654.00
2022-09-20T04:42:31.218Z,673.00
2022-09-20T04:43:14.461Z,692.00
2022-09-20T04:44:12.071Z,707.00
2022-09-20T04:45:18.447Z,715.00
2022-09-20T04:46:13.509Z,735.00
2022-09-20T04:47:14.074Z,754.00
2022-09-20T04:48:14.593Z,772.00
2022-09-20T04:49:15.103Z,787.00
2022-09-20T04:50:15.612Z,802.00
2022-09-20T04:51:16.118Z,846.00
2022-09-20T04:52:16.939Z,880.00
2022-09-20T04:53:17.330Z,896.00
2022-09-20T04:54:17.896Z,909.00
2022-09-20T04:55:18.451Z,915.00
2022-09-20T04:56:18.961Z,938.00
2022-09-20T04:57:20.850Z,982.00
2022-09-20T04:58:20.482Z,1037.00
2022-09-20T04:59:20.980Z,1032.00
2022-09-20T05:00:21.864Z,876.00
2022-09-20T05:01:23.797Z,668.00
2022-09-20T05:02:23.682Z,1077.00
2022-09-20T05:03:23.790Z,1632.00
2022-09-20T05:04:24.866Z,4373.00
2022-09-20T05:05:25.726Z,6431.00
2022-09-20T05:06:26.018Z,4063.00
2022-09-20T05:07:26.727Z,2148.00
2022-09-20T05:08:28.158Z,1443.00
2022-09-20T05:09:28.494Z,1419.00
2022-09-20T05:10:29.839Z,1419.00
2022-09-20T05:11:30.548Z,1428.00
2022-09-20T05:12:32.642Z,1437.00
2022-09-20T05:13:32.007Z,1440.00
2022-09-20T05:14:32.649Z,1446.00
2022-09-20T05:15:33.595Z,1449.00
2022-09-20T05:16:44.150Z,1459.00
2022-09-20T05:17:34.849Z,1463.00
2022-09-20T05:18:35.481Z,1482.00
2022-09-20T05:19:36.348Z,1488.00
2022-09-20T05:20:36.989Z,1483.00
2022-09-20T05:21:42.445Z,1475.00
2022-09-20T05:22:38.639Z,1467.00
2022-09-20T05:23:39.287Z,1460.00
2022-09-20T05:24:39.980Z,1453.00
2022-09-20T05:25:40.544Z,1456.00
2022-09-20T05:26:41.218Z,1456.00
2022-09-20T05:27:42.050Z,1458.00
2022-09-20T05:28:42.675Z,1463.00
2022-09-20T05:29:43.438Z,1467.00
2022-09-20T05:30:44.103Z,1477.00
2022-09-20T05:31:44.840Z,1485.00
2022-09-20T05:32:45.536Z,1489.00
2022-09-20T05:33:46.156Z,1500.00
2022-09-20T05:34:46.735Z,1511.00
2022-09-20T05:35:47.367Z,1513.00
2022-09-20T05:36:48.073Z,1525.00
2022-09-20T05:37:48.799Z,1540.00
2022-09-20T05:38:49.531Z,1549.00
2022-09-20T05:39:50.641Z,1557.00
2022-09-20T05:40:50.897Z,1569.00
2022-09-20T05:41:52.277Z,1580.00
2022-09-20T05:42:52.820Z,1591.00
2022-09-20T05:43:54.561Z,1603.00
2022-09-20T05:44:54.721Z,1616.00
2022-09-20T05:45:55.205Z,1629.00
2022-09-20T05:46:56.045Z,1642.00
2022-09-20T05:47:56.142Z,1663.00
2022-09-20T05:48:56.731Z,1672.00
2022-09-20T05:49:57.309Z,1685.00
2022-09-20T05:51:01.864Z,1698.00
2022-09-20T05:51:58.960Z,1715.00
2022-09-20T05:53:00.103Z,1732.00
2022-09-20T05:53:59.949Z,1731.00
2022-09-20T05:55:00.519Z,1755.00
2022-09-20T05:56:07.379Z,1767.00
2022-09-20T05:57:02.888Z,1786.00
2022-09-20T05:58:03.162Z,1795.00
2022-09-20T05:59:03.757Z,1813.00
2022-09-20T06:00:04.565Z,1830.00
2022-09-20T06:01:05.203Z,1848.00
2022-09-20T06:02:05.897Z,1861.00
2022-09-20T06:03:07.397Z,1882.00
2022-09-20T06:04:07.566Z,1889.00
2022-09-20T06:05:12.288Z,1913.00
2022-09-20T06:06:09.010Z,1934.00
2022-09-20T06:07:09.677Z,1938.00
2022-09-20T06:08:10.746Z,1968.00
2022-09-20T06:09:11.307Z,1996.00
2022-09-20T06:10:11.971Z,2012.00
2022-09-20T06:11:12.822Z,2033.00
2022-09-20T06:12:13.562Z,2054.00
2022-09-20T06:13:21.241Z,2077.00
2022-09-20T06:14:24.538Z,2096.00
2022-09-20T06:15:16.796Z,2122.00
2022-09-20T06:16:16.490Z,2147.00
2022-09-20T06:17:17.227Z,2173.00
2022-09-20T06:18:17.955Z,2195.00
2022-09-20T06:19:18.729Z,2212.00
2022-09-20T06:20:19.312Z,2242.00
2022-09-20T06:21:20.045Z,2257.00
2022-09-20T06:22:20.735Z,2292.00
2022-09-20T06:23:21.470Z,2315.00
2022-09-20T06:24:21.980Z,2337.00
2022-09-20T06:25:22.610Z,2363.00
2022-09-20T06:26:23.237Z,2389.00
2022-09-20T06:27:24.057Z,2417.00
2022-09-20T06:28:25.000Z,2434.00
2022-09-20T06:29:26.714Z,2471.00
2022-09-20T06:30:26.458Z,2498.00
2022-09-20T06:31:27.882Z,2512.00
2022-09-20T06:32:28.885Z,2545.00
2022-09-20T06:33:29.148Z,2572.00
2022-09-20T06:34:29.939Z,2599.00
2022-09-20T06:35:31.481Z,2631.00
2022-09-20T06:36:32.790Z,2647.00
2022-09-20T06:37:36.011Z,2670.00
2022-09-20T06:38:32.780Z,2704.00
2022-09-20T06:39:33.754Z,2716.00
2022-09-20T06:40:34.371Z,2751.00
2022-09-20T06:41:35.025Z,2794.00
2022-09-20T06:42:35.602Z,2821.00
2022-09-20T06:43:39.040Z,2847.00
2022-09-20T06:45:18.252Z,2886.00
2022-09-20T06:47:44.232Z,3015.00
2022-09-20T06:48:32.665Z,2980.00
2022-09-20T06:49:29.297Z,2994.00
2022-09-20T06:50:30.347Z,3034.00
2022-09-20T06:51:30.533Z,3038.00
2022-09-20T06:52:31.764Z,3072.00
2022-09-20T06:53:31.966Z,3120.00
2022-09-20T06:54:39.854Z,3093.00
2022-09-20T06:55:33.395Z,3131.00
2022-09-20T06:56:34.005Z,3191.00
2022-09-20T06:57:34.618Z,3202.00
2022-09-20T06:58:35.350Z,3228.00
2022-09-20T06:59:36.034Z,3241.00
2022-09-20T07:00:36.814Z,3242.00
2022-09-20T07:01:37.499Z,3239.00
2022-09-20T07:02:38.395Z,3480.00
2022-09-20T07:03:39.658Z,3470.00
2022-09-20T07:04:39.884Z,3632.00
2022-09-20T07:05:40.564Z,3582.00
2022-09-20T07:06:41.265Z,3480.00
2022-09-20T07:07:41.865Z,3583.00
2022-09-20T07:08:42.533Z,3657.00
2022-09-20T07:09:43.154Z,3583.00
2022-09-20T07:10:43.821Z,3580.00
2022-09-20T07:11:49.689Z,3585.00
2022-09-20T07:12:45.298Z,3586.00
2022-09-20T07:13:45.973Z,3580.00
2022-09-20T07:14:46.796Z,3580.00
2022-09-20T07:15:47.479Z,3736.00
2022-09-20T07:16:48.345Z,3825.00
2022-09-20T07:17:49.046Z,3845.00
2022-09-20T07:18:49.725Z,3877.00
2022-09-20T07:19:50.922Z,3889.00
2022-09-20T07:20:51.085Z,3882.00
2022-09-20T07:21:51.668Z,3842.00
2022-09-20T07:22:52.363Z,3835.00
2022-09-20T07:23:53.554Z,3843.00
2022-09-20T07:24:54.028Z,3878.00
2022-09-20T07:25:54.653Z,3909.00
2022-09-20T07:26:55.397Z,3875.00
2022-09-20T07:27:55.747Z,3928.00
2022-09-20T07:28:56.524Z,3920.00
2022-09-20T07:29:57.223Z,3916.00
2022-09-20T07:30:57.942Z,3953.00
2022-09-20T07:31:58.479Z,4000.00
2022-09-20T07:32:59.243Z,4011.00
2022-09-20T07:33:59.794Z,4045.00
2022-09-20T07:35:01.290Z,4049.00
2022-09-20T07:36:01.831Z,4091.00
2022-09-20T07:37:04.604Z,4125.00
2022-09-20T07:38:13.171Z,4145.00
2022-09-20T07:39:04.019Z,4173.00
2022-09-20T07:40:04.600Z,4175.00
2022-09-20T07:41:05.291Z,4298.00
2022-09-20T07:42:06.000Z,4290.00
2022-09-20T07:43:06.702Z,4391.00
2022-09-20T07:44:07.704Z,4265.00
2022-09-20T07:45:08.415Z,4424.00
2022-09-20T07:46:09.118Z,5369.00
2022-09-20T07:47:15.215Z,4397.00
2022-09-20T07:48:10.208Z,3337.00
2022-09-20T07:49:11.336Z,4207.00
2022-09-20T07:50:12.084Z,3119.00
2022-09-20T07:51:12.145Z,2791.00
2022-09-20T07:52:16.736Z,2806.00
2022-09-20T07:53:21.890Z,3287.00
2022-09-20T07:54:14.012Z,3169.00
2022-09-20T07:55:15.048Z,4047.00
2022-09-20T07:56:15.272Z,4587.00
2022-09-20T07:57:15.855Z,4380.00
2022-09-20T07:58:17.906Z,4637.00
2022-09-20T07:59:21.134Z,4608.00
2022-09-20T08:00:30.115Z,4985.00
2022-09-20T08:01:18.948Z,4586.00
2022-09-20T08:02:19.373Z,4325.00
2022-09-20T08:03:20.121Z,4755.00
2022-09-20T08:04:20.868Z,4838.00
2022-09-20T08:05:21.939Z,4666.00
2022-09-20T08:06:22.438Z,4621.00
2022-09-20T08:07:22.961Z,4785.00
2022-09-20T08:08:23.561Z,4958.00
2022-09-20T08:09:24.428Z,5059.00
2022-09-20T08:10:25.091Z,5191.00
2022-09-20T08:11:28.745Z,5017.00
2022-09-20T08:14:27.908Z,4579.00
2022-09-20T08:15:28.920Z,4730.00
2022-09-20T08:16:29.314Z,4537.00
2022-09-20T08:17:30.433Z,4950.00
2022-09-20T08:18:31.006Z,4565.00
2022-09-20T08:19:31.695Z,4977.00
2022-09-20T08:20:31.923Z,4542.00
2022-09-20T08:21:32.636Z,4059.00
2022-09-20T08:22:33.170Z,4352.00
2022-09-20T08:23:34.110Z,4282.00
2022-09-20T08:24:34.540Z,4643.00
2022-09-20T08:25:35.197Z,4647.00
2022-09-20T08:26:36.164Z,4932.00
2022-09-20T08:27:37.257Z,4910.00
2022-09-20T08:28:37.547Z,5011.00
2022-09-20T08:29:56.702Z,4857.00
2022-09-20T08:30:38.912Z,5086.00
2022-09-20T08:31:39.605Z,5030.00
2022-09-20T08:32:40.345Z,5063.00
2022-09-20T08:33:40.935Z,5041.00
2022-09-20T08:34:41.559Z,5133.00
2022-09-20T08:35:42.237Z,5311.00
2022-09-20T08:36:42.914Z,5456.00
2022-09-20T08:37:43.582Z,5043.00
2022-09-20T08:40:00.574Z,5014.00
2022-09-20T08:40:46.021Z,5500.00
2022-09-20T08:41:46.771Z,5769.00
2022-09-20T08:42:47.450Z,5393.00
2022-09-20T08:43:48.027Z,4983.00
2022-09-20T08:44:57.608Z,5425.00
2022-09-20T08:45:49.794Z,5856.00
2022-09-20T08:46:50.626Z,5497.00
2022-09-20T08:47:55.234Z,5829.00
2022-09-20T08:48:52.376Z,5493.00
2022-09-20T08:49:57.776Z,5995.00
2022-09-20T08:50:54.194Z,5396.00
2022-09-20T08:51:54.976Z,5991.00
2022-09-20T08:53:00.256Z,5865.00
2022-09-20T08:53:56.603Z,5610.00
2022-09-20T08:54:57.177Z,7995.00
2022-09-20T08:55:58.222Z,5494.00
2022-09-20T08:56:58.690Z,4940.00
2022-09-20T08:57:59.352Z,4128.00
2022-09-20T08:59:00.125Z,6241.00
2022-09-20T09:00:00.738Z,6673.00
2022-09-20T09:01:02.958Z,6624.00
2022-09-20T09:02:02.798Z,7240.00
2022-09-20T09:03:03.208Z,5385.00
2022-09-20T09:04:03.841Z,5779.00
2022-09-20T09:05:04.429Z,8503.00
2022-09-20T09:06:11.188Z,5593.00
2022-09-20T09:07:06.365Z,5182.00
2022-09-20T09:08:06.642Z,6260.00
2022-09-20T09:09:07.354Z,4800.00
2022-09-20T09:10:08.012Z,7273.00
2022-09-20T09:11:08.644Z,8243.00
2022-09-20T09:12:14.347Z,7726.00
2022-09-20T09:13:10.007Z,8042.00
2022-09-20T09:14:23.762Z,7555.00
2022-09-20T09:15:17.737Z,8342.00
2022-09-20T09:16:12.041Z,7424.00
2022-09-20T09:17:14.154Z,7592.00
2022-09-20T09:18:14.842Z,8082.00
2022-09-20T09:19:14.480Z,7767.00
2022-09-20T09:20:15.150Z,8291.00
2022-09-20T09:21:15.784Z,7807.00
2022-09-20T09:22:16.872Z,8916.00
2022-09-20T09:23:17.362Z,7520.00
2022-09-20T09:24:17.994Z,8155.00
2022-09-20T09:25:18.140Z,8168.00
2022-09-20T09:26:19.445Z,9212.00
2022-09-20T09:27:20.297Z,8641.00
2022-09-20T09:28:20.595Z,8754.00
2022-09-20T09:29:21.150Z,8779.00
2022-09-20T09:30:21.838Z,9465.00
2022-09-20T09:31:22.603Z,7871.00
2022-09-20T09:32:24.026Z,6492.00
2022-09-20T09:33:24.432Z,8331.00
2022-09-20T09:34:28.421Z,8571.00
2022-09-20T09:35:26.306Z,8374.00
2022-09-20T09:36:29.253Z,8480.00
2022-09-20T09:37:28.950Z,8394.00
2022-09-20T09:38:28.252Z,8568.00
2022-09-20T09:39:28.978Z,8672.00
2022-09-20T09:40:29.994Z,8293.00
2022-09-20T09:41:30.230Z,7914.00
2022-09-20T09:42:30.874Z,8020.00
2022-09-20T09:43:31.572Z,7959.00
2022-09-20T09:44:32.248Z,7847.00
2022-09-20T09:45:32.926Z,8305.00
2022-09-20T09:46:33.572Z,8530.00
2022-09-20T09:47:34.314Z,8789.00
2022-09-20T09:48:40.274Z,8797.00
2022-09-20T09:49:35.848Z,8665.00
2022-09-20T09:50:36.535Z,8602.00
2022-09-20T09:51:37.399Z,8993.00
2022-09-20T09:52:38.266Z,8961.00
2022-09-20T09:53:42.995Z,8630.00
2022-09-20T09:54:39.959Z,9152.00
2022-09-20T09:55:40.931Z,9128.00
2022-09-20T09:56:41.644Z,9332.00
2022-09-20T09:57:42.594Z,9188.00
2022-09-20T09:58:43.271Z,9240.00
2022-09-20T09:59:43.850Z,9358.00
2022-09-20T10:00:44.475Z,9566.00
2022-09-20T10:01:45.197Z,9635.00
2022-09-20T10:02:46.222Z,9148.00
2022-09-20T10:03:47.165Z,9419.00
2022-09-20T10:04:47.286Z,8796.00
2022-09-20T10:05:47.932Z,9043.00
2022-09-20T10:06:52.249Z,10019.00
2022-09-20T10:07:49.102Z,8807.00
2022-09-20T10:08:49.793Z,9983.00
2022-09-20T10:09:50.487Z,9776.00
2022-09-20T10:10:51.122Z,12798.00
2022-09-20T10:11:51.719Z,9542.00
2022-09-20T10:12:52.394Z,9265.00
2022-09-20T10:13:52.965Z,9861.00
2022-09-20T10:14:53.782Z,9573.00
2022-09-20T10:15:54.919Z,9898.00
2022-09-20T10:16:55.765Z,9053.00
2022-09-20T10:17:56.223Z,8250.00
2022-09-20T10:18:56.824Z,8094.00
2022-09-20T10:19:58.564Z,7798.00
2022-09-20T10:20:58.420Z,7095.00
2022-09-20T10:21:59.141Z,7103.00
2022-09-20T10:23:34.422Z,6215.00
2022-09-20T10:24:04.761Z,5969.00
2022-09-20T10:25:01.141Z,5736.00
2022-09-20T10:26:01.798Z,6476.00
2022-09-20T10:27:02.406Z,6983.00
2022-09-20T10:28:03.205Z,7322.00
2022-09-20T10:29:03.855Z,7233.00
2022-09-20T10:30:04.565Z,7276.00
2022-09-20T10:31:05.441Z,8035.00
2022-09-20T10:32:06.181Z,7562.00
2022-09-20T10:33:06.986Z,7192.00
2022-09-20T10:34:07.680Z,7735.00
2022-09-20T10:35:08.377Z,7474.00
2022-09-20T10:36:09.149Z,7667.00
2022-09-20T10:37:10.155Z,7798.00
2022-09-20T10:38:20.413Z,7745.00
2022-09-20T10:39:19.559Z,8422.00
2022-09-20T10:40:12.234Z,9293.00
2022-09-20T10:41:12.910Z,9502.00
2022-09-20T10:42:13.780Z,9913.00
2022-09-20T10:43:14.454Z,9869.00
2022-09-20T10:44:15.048Z,9874.00
2022-09-20T10:45:36.039Z,10479.00
2022-09-20T10:46:33.646Z,10626.00
2022-09-20T10:47:19.206Z,10496.00
2022-09-20T10:48:33.535Z,10718.00
2022-09-20T10:49:19.585Z,9838.00
2022-09-20T10:50:49.466Z,9101.00
2022-09-20T10:51:20.519Z,8851.00
2022-09-20T10:52:20.685Z,8764.00
2022-09-20T10:53:29.340Z,8448.00
2022-09-20T10:54:22.359Z,8359.00
2022-09-20T10:55:22.398Z,8473.00
2022-09-20T10:56:23.116Z,8369.00
2022-09-20T10:57:26.513Z,8142.00
2022-09-20T10:58:25.817Z,7838.00
2022-09-20T10:59:28.028Z,7759.00
2022-09-20T11:00:34.215Z,8498.00
2022-09-20T11:01:29.052Z,8197.00
2022-09-20T11:02:28.650Z,8693.00
2022-09-20T11:03:29.011Z,8636.00
2022-09-20T11:04:29.926Z,8367.00
2022-09-20T11:05:30.548Z,7964.00
2022-09-20T11:06:31.180Z,8012.00
2022-09-20T11:07:32.750Z,7396.00
2022-09-20T11:08:32.520Z,7092.00
2022-09-20T11:09:33.181Z,7178.00
2022-09-20T11:10:33.766Z,7568.00
2022-09-20T11:11:34.556Z,7533.00
2022-09-20T11:12:36.176Z,8005.00
2022-09-20T11:13:37.055Z,7975.00
2022-09-20T11:14:37.381Z,8546.00
2022-09-20T11:15:37.820Z,9299.00
2022-09-20T11:16:38.575Z,10220.00
2022-09-20T11:17:39.199Z,9348.00
2022-09-20T11:18:39.939Z,9776.00
2022-09-20T11:19:40.260Z,9140.00
2022-09-20T11:20:40.882Z,10460.00
2022-09-20T11:21:41.456Z,9101.00
2022-09-20T11:22:42.128Z,10041.00
2022-09-20T11:23:42.903Z,9830.00
2022-09-20T11:24:43.572Z,9625.00
2022-09-20T11:25:44.196Z,6038.00
2022-09-20T11:26:59.043Z,7566.00
2022-09-20T11:27:46.008Z,8471.00
2022-09-20T11:28:46.545Z,5530.00
2022-09-20T11:29:47.799Z,5218.00
2022-09-20T11:30:49.318Z,11169.00
2022-09-20T11:31:49.809Z,12629.00
2022-09-20T11:32:50.791Z,7085.00
2022-09-20T11:33:50.966Z,11644.00
2022-09-20T11:34:51.906Z,8649.00
2022-09-20T11:35:53.293Z,7970.00
2022-09-20T11:36:53.567Z,5974.00
2022-09-20T11:37:54.889Z,13834.00
2022-09-20T11:38:55.747Z,15798.00
2022-09-20T11:39:56.015Z,12226.00
2022-09-20T11:40:58.302Z,7729.00
2022-09-20T11:41:57.312Z,10324.00
2022-09-20T11:42:57.592Z,14265.00
2022-09-20T11:43:59.026Z,6944.00
2022-09-20T11:44:59.482Z,10146.00
2022-09-20T11:46:01.609Z,9832.00
2022-09-20T11:47:02.270Z,7914.00
2022-09-20T11:48:02.347Z,6905.00
2022-09-20T11:49:03.170Z,6418.00
2022-09-20T11:50:03.510Z,6239.00
2022-09-20T11:51:03.306Z,6194.00
2022-09-20T11:52:04.920Z,6181.00
2022-09-20T11:53:05.153Z,6179.00
2022-09-20T11:54:06.785Z,6130.00
2022-09-20T11:55:05.562Z,6095.00
2022-09-20T11:56:07.904Z,6063.00
2022-09-20T11:57:08.118Z,6030.00
2022-09-20T11:58:08.772Z,6028.00
2022-09-20T11:59:10.492Z,6014.00
2022-09-20T12:00:09.772Z,5998.00
2022-09-20T12:01:11.823Z,5991.00
2022-09-20T12:02:11.936Z,5990.00
2022-09-20T12:03:12.583Z,5961.00
2022-09-20T12:04:31.849Z,5955.00
2022-09-20T12:05:13.362Z,6000.00
2022-09-20T12:06:13.485Z,5991.00
2022-09-20T12:07:17.864Z,5955.00
2022-09-20T12:08:16.228Z,5963.00
2022-09-20T12:09:18.201Z,5974.00
2022-09-20T12:10:18.292Z,5922.00
2022-09-20T12:11:19.102Z,5937.00
2022-09-20T12:12:19.576Z,5956.00
2022-09-20T12:13:21.335Z,5957.00
2022-09-20T12:14:22.117Z,5963.00
2022-09-20T12:15:22.050Z,5964.00
2022-09-20T12:16:21.955Z,5942.00
2022-09-20T12:17:23.690Z,5930.00
2022-09-20T12:18:24.322Z,5917.00
2022-09-20T12:19:25.617Z,5910.00
2022-09-20T12:20:26.022Z,5932.00
2022-09-20T12:21:26.215Z,5951.00
2022-09-20T12:22:27.467Z,5912.00
2022-09-20T12:23:29.007Z,5907.00
2022-09-20T12:24:30.396Z,5937.00
2022-09-20T12:25:30.108Z,5938.00
2022-09-20T12:26:30.388Z,5908.00
2022-09-20T12:27:30.253Z,5863.00
2022-09-20T12:28:32.236Z,5892.00
2022-09-20T12:29:32.740Z,5875.00
2022-09-20T12:30:32.225Z,5881.00
2022-09-20T12:31:33.126Z,5907.00
2022-09-20T12:32:33.915Z,5912.00
2022-09-20T12:33:34.719Z,5903.00
2022-09-20T12:34:35.225Z,5886.00
2022-09-20T12:35:36.230Z,5884.00
2022-09-20T12:36:36.459Z,5885.00
2022-09-20T12:37:36.543Z,5885.00
2022-09-20T12:38:37.299Z,5894.00
2022-09-20T12:39:38.060Z,5888.00
2022-09-20T12:40:38.790Z,5878.00
2022-09-20T12:41:39.349Z,5891.00
2022-09-20T12:42:40.005Z,5892.00